Main page
METAR-TAF:

Airports :

Maputo, Mozambique

Maputo International Airport

latitude: 25-55S, longitude: 032-34E, elevation: 39 m

Current weather observation

The report was made 2 hours and 25 minutes ago, at 13:00 UTC
Wind 11 kt from the East
Temperature 26°C
Humidity 48%
Pressure 1021 hPa
Visibility 10 km or more
Few clouds at a height of 2500 ft

METAR: FQMA 041300Z 08011KT 9999 FEW025 26/14 Q1021 NOSIG

Time: 17:25 (15:25 UTC)

Forecast

The report was made 5 hours and 25 minutes ago, at 10:00 UTC
Forecast valid from 04 at 12 UTC to 05 at 18 UTC
Wind 12 kt from the South/Southeast
Visibility 10 km or more
Scattered clouds at a height of 2000 ft
Becoming
from 05 at 00 UTC to 05 at 02 UTC
Wind 8 kt from the South/Southwest
Becoming
from 05 at 12 UTC to 05 at 14 UTC
Wind 12 kt from the South

TAF: FQMA 041000Z 0412/0518 15012KT 9999 SCT020 BECMG 0500/0502 21008KT BECMG 0512/0514 19012KT TN25/0503ZTX30/0512Z

METAR-TAF

Weather observations and forecasts of more than 4000 airports (METAR and TAF reports).

The available stations are represented by yellow and red dots on the map.

Hover mouse over dot to see the name of the station.

Then click to see weather observations and forecasts.

To change the map : click on the green buttons with a black cross to zoom in, on the green button with a dash to zoom out, or on the green arrows for adjacent maps.


METAR-TAF: